Time;durP1;ratioP1;P1;durP2;ratioP2;P2;SDS_P1;SDS_P2;PMS_P1;PMS_P2;Temp;Humidity;BMP_temperature;BMP_pressure;BME280_temperature;BME280_humidity;BME280_pressure;Samples;Min_cycle;Max_cycle;Signal;HPM_P1;HPM_P2
2021/05/24 00:00:17;;;;;;;1.20;0.90;;;7.80;98.00;;;;;;5050356;28;20499;-69
2021/05/24 00:02:45;;;;;;;1.20;0.90;;;7.70;98.00;;;;;;5049791;28;20585;-70
2021/05/24 00:05:15;;;;;;;1.83;1.00;;;7.60;98.00;;;;;;5050246;28;20471;-69
2021/05/24 00:07:42;;;;;;;1.20;1.00;;;7.60;98.00;;;;;;5050173;28;20541;-69
2021/05/24 00:10:11;;;;;;;1.20;1.00;;;7.50;98.00;;;;;;5048086;28;20471;-70
2021/05/24 00:12:38;;;;;;;1.20;0.90;;;7.70;98.00;;;;;;5049958;28;20467;-69
2021/05/24 00:15:07;;;;;;;1.40;1.10;;;7.80;98.00;;;;;;5048066;28;20461;-69
2021/05/24 00:17:33;;;;;;;1.20;0.90;;;7.90;98.00;;;;;;5050218;28;20484;-69
2021/05/24 00:20:01;;;;;;;1.20;0.90;;;8.00;98.00;;;;;;5048010;28;20480;-69
2021/05/24 00:22:30;;;;;;;1.73;1.10;;;8.10;98.00;;;;;;5050287;28;20497;-69
2021/05/24 00:24:58;;;;;;;1.77;1.10;;;7.90;98.00;;;;;;5047667;28;20457;-69
2021/05/24 00:27:25;;;;;;;1.40;1.00;;;7.80;98.00;;;;;;5048938;28;20509;-70
2021/05/24 00:29:51;;;;;;;1.20;0.90;;;7.80;98.00;;;;;;5047811;28;20448;-69
2021/05/24 00:32:18;;;;;;;1.20;0.90;;;7.70;98.00;;;;;;5050252;28;20504;-69
2021/05/24 00:34:44;;;;;;;1.20;1.00;;;7.60;98.00;;;;;;5051438;28;21076;-69
2021/05/24 00:37:11;;;;;;;1.20;0.97;;;7.70;98.00;;;;;;5052729;28;20863;-70
2021/05/24 00:39:38;;;;;;;1.20;0.90;;;7.60;98.00;;;;;;5051453;28;21345;-69
2021/05/24 00:42:05;;;;;;;1.20;0.90;;;7.70;98.00;;;;;;5053952;28;20868;-70
2021/05/24 00:44:32;;;;;;;1.20;0.90;;;7.60;98.00;;;;;;5051493;28;20524;-69
2021/05/24 00:46:58;;;;;;;1.20;0.90;;;7.60;98.00;;;;;;5053560;28;20504;-69
2021/05/24 00:49:26;;;;;;;1.20;1.00;;;7.50;98.00;;;;;;5051046;28;20500;-69
2021/05/24 00:51:54;;;;;;;1.20;1.00;;;7.60;98.00;;;;;;5053276;28;20470;-69
2021/05/24 00:54:21;;;;;;;1.20;0.97;;;7.60;98.00;;;;;;5050945;28;20460;-70
2021/05/24 00:56:49;;;;;;;1.20;1.00;;;7.50;98.00;;;;;;5053207;28;20495;-69
2021/05/24 00:59:16;;;;;;;1.20;0.90;;;7.50;98.00;;;;;;5051099;28;20955;-69
2021/05/24 01:01:42;;;;;;;1.30;1.07;;;7.40;98.00;;;;;;5053190;28;20462;-69
2021/05/24 01:04:12;;;;;;;1.20;1.00;;;7.30;98.00;;;;;;5051036;28;20453;-69
2021/05/24 01:06:38;;;;;;;2.43;1.20;;;7.20;98.00;;;;;;5053303;28;20533;-69
2021/05/24 01:09:05;;;;;;;1.20;1.00;;;7.20;98.00;;;;;;5050829;28;20569;-69
2021/05/24 01:11:32;;;;;;;1.20;0.90;;;7.20;98.00;;;;;;5053421;28;20459;-69
2021/05/24 01:14:00;;;;;;;1.80;1.27;;;7.30;98.00;;;;;;5050522;28;20489;-69
2021/05/24 01:16:27;;;;;;;1.20;0.90;;;7.50;98.00;;;;;;5052798;28;20511;-69
2021/05/24 01:18:53;;;;;;;1.20;0.90;;;7.50;98.00;;;;;;5051306;28;20461;-69
2021/05/24 01:21:23;;;;;;;1.20;0.90;;;7.50;98.00;;;;;;5053561;28;20482;-69
2021/05/24 01:23:50;;;;;;;1.20;0.90;;;7.50;98.00;;;;;;5051464;28;20499;-69
2021/05/24 01:26:19;;;;;;;1.20;0.90;;;7.50;98.00;;;;;;5051645;28;20989;-69
2021/05/24 01:28:46;;;;;;;4.10;1.00;;;7.40;98.00;;;;;;5050180;28;20481;-69
2021/05/24 01:31:13;;;;;;;1.20;1.00;;;7.20;98.00;;;;;;5053133;28;20513;-69
2021/05/24 01:33:39;;;;;;;1.20;1.00;;;7.30;98.00;;;;;;5050331;28;20475;-69
2021/05/24 01:36:08;;;;;;;1.20;1.03;;;7.20;98.00;;;;;;5052776;28;20481;-69
2021/05/24 01:38:37;;;;;;;1.20;0.90;;;7.20;98.00;;;;;;5050634;28;20455;-69
2021/05/24 01:41:17;;;;;;;1.20;1.00;;;7.30;98.00;;;;;;5052765;28;20461;-69
2021/05/24 01:43:44;;;;;;;1.20;1.00;;;7.30;98.00;;;;;;5049766;28;20455;-69
2021/05/24 01:46:12;;;;;;;1.23;1.00;;;7.40;98.00;;;;;;5051839;28;20508;-69
2021/05/24 01:48:39;;;;;;;1.20;1.00;;;7.40;98.00;;;;;;5048413;28;20483;-70
2021/05/24 01:51:07;;;;;;;1.20;0.90;;;7.30;98.00;;;;;;5052549;28;20558;-69
2021/05/24 01:53:35;;;;;;;1.20;1.00;;;7.30;98.00;;;;;;5048956;28;20961;-69
2021/05/24 01:56:02;;;;;;;1.20;0.90;;;7.40;98.00;;;;;;5052593;28;20976;-69
2021/05/24 01:58:30;;;;;;;1.90;1.57;;;7.30;98.00;;;;;;5049842;28;20873;-69
2021/05/24 02:01:02;;;;;;;1.20;0.90;;;7.50;98.00;;;;;;5052328;28;20451;-69
2021/05/24 02:03:28;;;;;;;1.20;0.90;;;7.50;98.00;;;;;;5049188;28;20542;-69
2021/05/24 02:05:55;;;;;;;1.20;0.90;;;7.50;98.00;;;;;;5052217;28;20871;-69
2021/05/24 02:08:21;;;;;;;1.20;0.90;;;7.40;98.00;;;;;;5049507;28;20494;-69
2021/05/24 02:10:51;;;;;;;1.20;1.00;;;7.20;98.00;;;;;;5052035;28;20464;-69
2021/05/24 02:13:18;;;;;;;1.20;0.90;;;7.20;98.00;;;;;;5049348;28;20454;-69
2021/05/24 02:15:45;;;;;;;1.20;1.00;;;7.20;98.00;;;;;;5051885;28;20497;-69
2021/05/24 02:18:11;;;;;;;1.20;1.00;;;7.10;98.00;;;;;;5049303;28;20458;-69
2021/05/24 02:20:38;;;;;;;1.20;0.90;;;6.90;98.00;;;;;;5051743;28;21115;-69
2021/05/24 02:23:06;;;;;;;1.20;1.00;;;6.90;98.00;;;;;;5049195;28;20494;-69
2021/05/24 02:25:33;;;;;;;1.97;1.13;;;6.80;98.00;;;;;;5051728;28;20612;-69
2021/05/24 02:28:01;;;;;;;1.20;1.00;;;6.90;98.00;;;;;;5050170;28;20909;-70
2021/05/24 02:30:28;;;;;;;1.20;0.90;;;6.90;98.00;;;;;;5051562;28;20824;-69
2021/05/24 02:32:55;;;;;;;1.20;0.90;;;7.00;98.00;;;;;;5049464;28;20491;-69
2021/05/24 02:35:24;;;;;;;1.20;1.00;;;7.00;98.00;;;;;;5049549;28;20496;-69
2021/05/24 02:37:51;;;;;;;1.20;0.90;;;6.90;98.00;;;;;;5033893;28;20819;-69
2021/05/24 02:40:19;;;;;;;2.50;1.20;;;6.70;98.00;;;;;;5047690;28;20945;-69
2021/05/24 02:42:47;;;;;;;1.20;0.90;;;6.80;98.00;;;;;;5050109;28;20451;-69
2021/05/24 02:45:17;;;;;;;1.20;1.00;;;6.80;98.00;;;;;;5048587;28;20497;-69
2021/05/24 02:47:44;;;;;;;1.30;1.10;;;6.90;98.00;;;;;;5051133;28;20461;-69
2021/05/24 02:50:15;;;;;;;1.20;1.00;;;6.80;98.00;;;;;;5047297;28;20466;-69
2021/05/24 02:52:41;;;;;;;1.20;0.90;;;6.70;98.00;;;;;;5050790;28;20498;-69
2021/05/24 02:55:09;;;;;;;1.20;1.00;;;6.70;98.00;;;;;;5048501;28;20549;-69
2021/05/24 02:57:36;;;;;;;1.20;1.00;;;6.70;98.00;;;;;;5050982;28;20461;-69
2021/05/24 03:00:04;;;;;;;1.30;1.20;;;6.80;98.00;;;;;;5048411;28;20481;-69
2021/05/24 03:02:32;;;;;;;1.20;0.90;;;6.90;98.00;;;;;;5049903;28;20459;-69
2021/05/24 03:04:58;;;;;;;1.20;0.90;;;7.00;98.00;;;;;;5048609;28;20461;-69
2021/05/24 03:07:25;;;;;;;1.20;1.00;;;7.00;98.00;;;;;;5051180;28;20455;-69
2021/05/24 03:09:51;;;;;;;1.20;1.00;;;7.10;98.00;;;;;;5047271;28;20488;-69
2021/05/24 03:12:18;;;;;;;1.20;0.90;;;7.20;98.00;;;;;;5049739;28;20496;-69
2021/05/24 03:14:44;;;;;;;1.20;1.00;;;7.20;98.00;;;;;;5048306;28;20491;-69
2021/05/24 03:17:11;;;;;;;1.50;1.30;;;7.30;98.00;;;;;;5049741;28;20501;-69
2021/05/24 03:19:38;;;;;;;1.50;1.20;;;7.30;98.00;;;;;;5046968;28;20451;-69
2021/05/24 03:22:05;;;;;;;3.83;1.60;;;7.30;98.00;;;;;;5050649;28;20456;-69
2021/05/24 03:24:31;;;;;;;1.40;1.13;;;7.40;98.00;;;;;;5047023;28;20464;-69
2021/05/24 03:26:58;;;;;;;1.20;1.00;;;7.30;98.00;;;;;;5050767;28;20467;-69
2021/05/24 03:29:24;;;;;;;1.20;0.93;;;7.20;98.00;;;;;;5048147;28;20566;-69
2021/05/24 03:31:51;;;;;;;1.30;1.20;;;7.30;98.00;;;;;;5049550;28;20530;-69
2021/05/24 03:34:17;;;;;;;1.20;1.13;;;7.20;98.00;;;;;;5047980;28;20474;-69
2021/05/24 03:36:45;;;;;;;1.67;1.00;;;7.30;98.00;;;;;;5050465;28;20503;-69
2021/05/24 03:39:11;;;;;;;1.20;1.00;;;7.40;98.00;;;;;;5047822;28;21013;-69
2021/05/24 03:41:38;;;;;;;1.20;1.00;;;7.40;98.00;;;;;;5050434;28;20499;-69
2021/05/24 03:44:05;;;;;;;1.20;0.90;;;7.40;98.00;;;;;;5047921;28;20507;-69
2021/05/24 03:46:31;;;;;;;1.30;1.10;;;7.20;98.00;;;;;;5050474;28;20457;-69
2021/05/24 03:49:00;;;;;;;1.20;1.10;;;7.20;98.00;;;;;;5047894;28;20583;-69
2021/05/24 03:51:27;;;;;;;1.30;1.13;;;7.20;98.00;;;;;;5050404;28;20488;-69
2021/05/24 03:53:55;;;;;;;1.20;1.00;;;7.10;98.00;;;;;;5048032;28;20461;-69
2021/05/24 03:56:22;;;;;;;1.30;1.10;;;7.00;98.00;;;;;;5050276;28;20816;-69
2021/05/24 03:58:48;;;;;;;1.20;1.00;;;7.00;98.00;;;;;;5048156;28;20465;-69
2021/05/24 04:01:15;;;;;;;1.53;1.30;;;7.10;98.00;;;;;;5050370;28;20977;-69
2021/05/24 04:03:41;;;;;;;1.20;1.00;;;7.20;98.00;;;;;;5047941;28;20460;-69
2021/05/24 04:06:10;;;;;;;1.23;1.03;;;7.20;98.00;;;;;;5050118;28;20455;-69
2021/05/24 04:08:39;;;;;;;1.50;1.10;;;7.30;98.00;;;;;;5049777;28;20485;-69
2021/05/24 04:11:07;;;;;;;1.20;1.10;;;7.40;98.00;;;;;;5054133;28;20509;-69
2021/05/24 04:13:33;;;;;;;1.30;1.13;;;7.40;98.00;;;;;;5051753;28;20486;-69
2021/05/24 04:16:00;;;;;;;1.20;1.00;;;7.50;98.00;;;;;;5054009;28;20479;-69
2021/05/24 04:18:30;;;;;;;1.20;0.93;;;7.40;98.00;;;;;;5051748;28;20461;-69
2021/05/24 04:20:56;;;;;;;1.40;1.10;;;7.30;98.00;;;;;;5054184;28;20455;-69
2021/05/24 04:23:23;;;;;;;1.20;1.03;;;7.20;98.00;;;;;;5051805;28;20487;-69
2021/05/24 04:25:49;;;;;;;1.20;1.00;;;7.30;98.00;;;;;;5054240;28;20478;-69
2021/05/24 04:28:17;;;;;;;2.10;1.27;;;7.10;98.00;;;;;;5051410;28;20525;-70
2021/05/24 04:30:43;;;;;;;1.20;1.00;;;7.20;98.00;;;;;;5052714;28;20489;-69
2021/05/24 04:33:10;;;;;;;2.60;1.40;;;7.30;98.00;;;;;;5053255;28;20487;-70
2021/05/24 04:35:37;;;;;;;1.20;0.90;;;7.30;98.00;;;;;;5052945;28;20456;-69
2021/05/24 04:38:04;;;;;;;1.20;1.00;;;7.40;98.00;;;;;;5053691;28;20502;-69
2021/05/24 04:40:31;;;;;;;1.77;1.33;;;7.50;98.00;;;;;;5049887;28;20446;-69
2021/05/24 04:42:58;;;;;;;1.50;1.10;;;7.60;98.00;;;;;;5053628;28;20921;-69
2021/05/24 04:45:26;;;;;;;1.20;0.90;;;7.60;98.00;;;;;;5051193;28;20460;-68
2021/05/24 04:47:52;;;;;;;1.20;1.00;;;7.60;98.00;;;;;;5053530;28;20465;-69
2021/05/24 04:50:19;;;;;;;1.20;1.00;;;7.60;98.00;;;;;;5050915;28;20470;-69
2021/05/24 04:52:45;;;;;;;1.57;1.37;;;7.70;98.00;;;;;;5053394;28;20877;-69
2021/05/24 04:55:13;;;;;;;1.20;1.00;;;7.50;98.00;;;;;;5051264;28;20763;-69
2021/05/24 04:57:41;;;;;;;1.20;1.00;;;7.60;98.00;;;;;;5053117;28;20522;-69
2021/05/24 05:00:10;;;;;;;1.20;0.90;;;7.50;98.00;;;;;;5051012;28;20506;-69
2021/05/24 05:02:38;;;;;;;1.20;0.90;;;7.60;98.00;;;;;;5053264;28;20465;-69
2021/05/24 05:05:05;;;;;;;1.30;1.00;;;7.80;98.00;;;;;;5050763;28;20464;-69
2021/05/24 05:07:32;;;;;;;1.20;1.03;;;8.00;98.00;;;;;;5053054;28;20457;-69
2021/05/24 05:09:58;;;;;;;1.20;1.00;;;8.10;98.00;;;;;;5049169;28;20492;-68
2021/05/24 05:12:25;;;;;;;1.43;1.00;;;8.20;98.00;;;;;;5053175;28;20464;-69
2021/05/24 05:14:52;;;;;;;1.50;1.10;;;8.20;98.00;;;;;;5050483;28;20458;-69
2021/05/24 05:17:19;;;;;;;1.20;1.00;;;8.30;98.00;;;;;;5052942;28;20451;-69
2021/05/24 05:19:47;;;;;;;1.20;1.00;;;8.40;98.00;;;;;;5050442;28;20461;-69
2021/05/24 05:22:14;;;;;;;1.20;1.10;;;8.50;98.00;;;;;;5052959;28;20456;-69
2021/05/24 05:24:41;;;;;;;1.20;0.90;;;8.70;98.00;;;;;;5050365;28;21243;-69
2021/05/24 05:27:07;;;;;;;1.20;1.00;;;8.80;98.00;;;;;;5052775;28;20512;-69
2021/05/24 05:29:34;;;;;;;1.70;1.20;;;8.80;98.00;;;;;;5050193;28;21102;-69
2021/05/24 05:32:01;;;;;;;1.20;0.90;;;9.00;98.00;;;;;;5052898;28;20503;-69
2021/05/24 05:34:27;;;;;;;1.20;1.00;;;8.90;98.00;;;;;;5050214;28;20459;-69
2021/05/24 05:36:55;;;;;;;1.20;1.00;;;9.00;98.00;;;;;;5052930;28;20526;-69
2021/05/24 05:39:21;;;;;;;1.20;1.00;;;9.10;98.00;;;;;;5050308;28;20458;-69
2021/05/24 05:41:48;;;;;;;1.30;1.00;;;9.00;98.00;;;;;;5052905;28;20960;-69
2021/05/24 05:44:14;;;;;;;1.20;1.00;;;8.90;98.00;;;;;;5049900;28;20515;-69
2021/05/24 05:46:41;;;;;;;1.20;1.00;;;9.00;98.00;;;;;;5051286;28;20876;-69
2021/05/24 05:49:07;;;;;;;1.40;1.20;;;8.90;98.00;;;;;;5049736;28;20639;-69
2021/05/24 05:51:34;;;;;;;1.43;1.20;;;8.90;98.00;;;;;;5052443;28;20529;-69
2021/05/24 05:54:01;;;;;;;1.20;0.90;;;8.90;98.00;;;;;;5049700;28;20505;-69
2021/05/24 05:56:28;;;;;;;1.20;1.00;;;8.90;98.00;;;;;;5052284;28;20807;-69
2021/05/24 05:58:54;;;;;;;1.30;1.10;;;9.00;98.00;;;;;;5049342;28;20490;-69
2021/05/24 06:01:21;;;;;;;1.20;0.90;;;9.20;98.00;;;;;;5052047;28;20824;-69
2021/05/24 06:03:48;;;;;;;1.20;0.90;;;9.30;98.00;;;;;;5049754;28;20456;-69
2021/05/24 06:06:14;;;;;;;1.20;1.00;;;9.20;98.00;;;;;;5052062;28;20488;-68
2021/05/24 06:08:41;;;;;;;1.20;1.00;;;9.20;98.00;;;;;;5049567;28;20499;-69
2021/05/24 06:11:08;;;;;;;1.20;1.00;;;9.30;98.00;;;;;;5051891;28;20469;-69
2021/05/24 06:13:35;;;;;;;1.20;1.13;;;9.40;98.00;;;;;;5049736;28;20994;-69
2021/05/24 06:16:01;;;;;;;3.03;1.57;;;9.60;98.00;;;;;;5051611;28;20978;-69
2021/05/24 06:18:28;;;;;;;1.20;1.00;;;9.60;98.00;;;;;;5049638;28;20453;-69
2021/05/24 06:20:54;;;;;;;1.50;1.30;;;9.70;98.00;;;;;;5051758;28;20449;-69
2021/05/24 06:23:21;;;;;;;1.20;1.00;;;9.90;98.00;;;;;;5051299;28;20494;-69
2021/05/24 06:25:48;;;;;;;2.13;1.57;;;9.90;98.00;;;;;;5050701;28;20514;-68
2021/05/24 06:28:16;;;;;;;1.30;1.07;;;10.00;98.00;;;;;;5051502;28;20490;-69
2021/05/24 06:30:42;;;;;;;1.20;0.90;;;10.00;98.00;;;;;;5048632;28;20461;-68
2021/05/24 06:33:10;;;;;;;1.20;1.00;;;10.20;98.00;;;;;;5051542;28;20485;-69
2021/05/24 06:35:37;;;;;;;1.53;1.37;;;10.20;98.00;;;;;;5049007;28;20442;-69
2021/05/24 06:38:04;;;;;;;1.47;1.13;;;10.30;98.00;;;;;;5051494;28;20460;-69
2021/05/24 06:40:31;;;;;;;2.23;1.20;;;10.40;98.00;;;;;;5049137;28;21005;-68
2021/05/24 06:42:58;;;;;;;1.20;1.00;;;10.40;98.00;;;;;;5051083;28;20486;-69
2021/05/24 06:45:25;;;;;;;1.30;1.10;;;10.40;98.00;;;;;;5049078;28;20490;-68
2021/05/24 06:47:52;;;;;;;2.00;1.13;;;10.60;98.00;;;;;;5051369;28;20488;-69
2021/05/24 06:50:18;;;;;;;1.40;1.10;;;10.70;98.00;;;;;;5048719;28;21064;-68
2021/05/24 06:52:45;;;;;;;1.20;1.00;;;10.80;98.00;;;;;;5051054;28;20461;-69
2021/05/24 06:55:12;;;;;;;1.20;0.97;;;10.80;98.00;;;;;;5048808;28;20506;-69
2021/05/24 06:57:39;;;;;;;1.20;1.00;;;10.80;98.00;;;;;;5051117;28;20452;-68
2021/05/24 07:00:10;;;;;;;1.30;1.00;;;10.90;98.00;;;;;;5049070;28;20495;-69
2021/05/24 07:02:38;;;;;;;1.20;0.90;;;11.10;98.00;;;;;;5051150;28;20488;-68
2021/05/24 07:05:06;;;;;;;1.30;1.10;;;11.20;98.00;;;;;;5048917;28;20468;-69
2021/05/24 07:07:33;;;;;;;1.20;0.97;;;11.30;98.00;;;;;;5050864;28;20496;-69
2021/05/24 07:10:00;;;;;;;1.20;0.90;;;11.30;98.00;;;;;;5048519;28;20557;-70
2021/05/24 07:12:26;;;;;;;1.20;0.97;;;11.50;98.00;;;;;;5050827;28;20457;-69
2021/05/24 07:14:54;;;;;;;1.83;1.10;;;11.60;98.00;;;;;;5048395;28;20837;-69
2021/05/24 07:17:21;;;;;;;1.20;0.90;;;11.70;98.00;;;;;;5050752;28;20460;-69
2021/05/24 07:19:50;;;;;;;1.30;1.10;;;11.60;98.00;;;;;;5048370;28;20456;-69
2021/05/24 07:22:16;;;;;;;1.37;1.10;;;11.70;98.00;;;;;;5050820;28;20821;-70
2021/05/24 07:24:43;;;;;;;1.20;1.00;;;11.80;98.00;;;;;;5048214;28;20460;-70
2021/05/24 07:27:09;;;;;;;1.20;1.00;;;12.00;98.00;;;;;;5049335;28;21016;-70
2021/05/24 07:29:35;;;;;;;1.30;1.17;;;12.00;98.00;;;;;;5048394;28;20845;-70
2021/05/24 07:32:09;;;;;;;1.20;1.00;;;11.80;98.00;;;;;;5048169;28;20487;-69
2021/05/24 07:34:35;;;;;;;2.00;1.20;;;11.90;98.00;;;;;;5048187;28;20459;-69
2021/05/24 07:37:04;;;;;;;1.20;0.97;;;12.10;98.00;;;;;;5050655;28;20457;-69
2021/05/24 07:39:31;;;;;;;1.20;1.00;;;12.40;98.00;;;;;;5047986;28;20514;-69
2021/05/24 07:42:01;;;;;;;1.20;1.00;;;12.60;98.00;;;;;;5048406;28;20504;-69
2021/05/24 07:44:28;;;;;;;1.30;1.03;;;12.80;98.00;;;;;;5052774;28;20461;-69
2021/05/24 07:46:55;;;;;;;1.53;1.13;;;13.00;98.00;;;;;;5052304;28;20506;-69
2021/05/24 07:49:22;;;;;;;1.20;1.00;;;13.20;98.00;;;;;;5049949;28;20495;-68
2021/05/24 07:51:49;;;;;;;2.07;1.10;;;13.40;98.00;;;;;;5051534;28;21085;-69
2021/05/24 07:54:16;;;;;;;1.20;0.90;;;13.60;98.00;;;;;;5051697;28;20450;-69
2021/05/24 07:56:43;;;;;;;1.20;1.00;;;13.80;98.00;;;;;;5050518;28;20495;-69
2021/05/24 07:59:10;;;;;;;1.33;1.10;;;14.00;98.00;;;;;;5051328;28;21045;-68
2021/05/24 08:01:36;;;;;;;1.20;0.90;;;14.10;98.00;;;;;;5052083;28;20517;-71
2021/05/24 08:04:03;;;;;;;1.20;1.00;;;14.20;98.00;;;;;;5050900;28;20484;-71
2021/05/24 08:06:30;;;;;;;1.33;1.10;;;14.30;98.00;;;;;;5053821;28;20873;-71
2021/05/24 08:08:56;;;;;;;1.20;1.00;;;14.40;98.00;;;;;;5051468;28;20483;-71
2021/05/24 08:11:24;;;;;;;1.30;1.10;;;14.30;98.00;;;;;;5054184;28;20947;-70
2021/05/24 08:13:53;;;;;;;1.60;1.20;;;14.40;98.00;;;;;;5047898;28;21157;-71
2021/05/24 08:16:20;;;;;;;1.20;1.00;;;14.40;98.00;;;;;;5051108;28;20936;-69
2021/05/24 08:18:47;;;;;;;1.20;1.00;;;14.60;98.00;;;;;;5048177;28;20507;-68
2021/05/24 08:21:14;;;;;;;1.20;1.00;;;14.70;98.00;;;;;;5051106;28;20465;-70
2021/05/24 08:23:44;;;;;;;1.40;1.20;;;14.80;98.00;;;;;;5048930;28;20461;-71
2021/05/24 08:26:11;;;;;;;1.20;1.10;;;14.90;98.00;;;;;;5051121;28;20981;-70
2021/05/24 08:28:53;;;;;;;1.20;1.00;;;15.00;98.00;;;;;;5051478;28;20519;-70
2021/05/24 08:31:19;;;;;;;1.30;1.10;;;15.00;98.00;;;;;;5053575;28;20460;-71
2021/05/24 08:33:46;;;;;;;1.20;1.10;;;15.00;98.00;;;;;;5051674;28;20490;-71
2021/05/24 08:36:12;;;;;;;1.20;1.00;;;15.00;98.00;;;;;;5052947;28;20990;-71
2021/05/24 08:38:39;;;;;;;1.20;1.10;;;15.10;98.00;;;;;;5050453;28;20536;-71
2021/05/24 08:41:07;;;;;;;1.50;1.43;;;15.10;98.00;;;;;;5053807;28;20464;-71
2021/05/24 08:43:35;;;;;;;1.70;1.30;;;15.10;98.00;;;;;;5053070;28;20445;-71
2021/05/24 08:46:03;;;;;;;1.30;1.10;;;15.20;98.00;;;;;;5052559;28;20536;-71
2021/05/24 08:48:30;;;;;;;1.97;1.40;;;15.30;98.00;;;;;;5053605;28;20460;-71
2021/05/24 08:50:57;;;;;;;1.20;1.00;;;15.20;98.00;;;;;;5051098;28;20468;-70
2021/05/24 08:53:24;;;;;;;1.20;1.00;;;15.20;97.70;;;;;;5052412;28;20456;-71
2021/05/24 08:55:53;;;;;;;1.20;1.00;;;15.30;98.00;;;;;;5050810;28;20887;-70
2021/05/24 08:58:20;;;;;;;1.20;1.00;;;15.50;98.00;;;;;;5052725;28;20484;-71
2021/05/24 09:00:47;;;;;;;1.30;1.13;;;15.40;98.00;;;;;;5050352;28;20475;-71
2021/05/24 09:03:19;;;;;;;1.43;1.10;;;15.50;98.00;;;;;;5053350;28;20609;-71
2021/05/24 09:05:47;;;;;;;1.20;1.00;;;15.60;98.00;;;;;;5051019;28;20545;-70
2021/05/24 09:08:14;;;;;;;1.30;1.20;;;15.70;98.00;;;;;;5053102;28;20551;-71
2021/05/24 09:10:43;;;;;;;1.20;1.10;;;15.80;98.00;;;;;;5050732;28;21058;-70
2021/05/24 09:13:11;;;;;;;1.30;1.10;;;15.90;97.40;;;;;;5053136;28;20467;-71
2021/05/24 09:15:40;;;;;;;1.20;1.00;;;16.00;96.20;;;;;;5050696;28;20515;-71
2021/05/24 09:18:08;;;;;;;1.20;1.10;;;16.20;97.00;;;;;;5053014;28;20489;-71
2021/05/24 09:20:38;;;;;;;1.20;1.00;;;16.30;94.90;;;;;;5050644;28;20534;-71
2021/05/24 09:23:14;;;;;;;2.30;1.30;;;16.50;94.70;;;;;;5053043;28;20819;-71
2021/05/24 09:26:04;;;;;;;1.20;1.00;;;16.60;95.90;;;;;;5050386;28;20989;-71
2021/05/24 09:28:34;;;;;;;1.20;1.20;;;16.90;94.80;;;;;;5052684;28;20457;-71
2021/05/24 09:31:03;;;;;;;1.20;1.00;;;17.00;93.80;;;;;;5050630;28;20477;-71
2021/05/24 09:33:29;;;;;;;1.20;1.00;;;17.20;93.10;;;;;;5051399;28;20473;-71
2021/05/24 09:35:57;;;;;;;1.30;1.20;;;17.30;93.80;;;;;;5050826;28;20462;-71
2021/05/24 09:38:25;;;;;;;1.90;1.40;;;17.50;94.30;;;;;;5051439;28;20964;-71
2021/05/24 09:40:55;;;;;;;2.07;1.23;;;17.60;93.10;;;;;;5048943;28;20449;-71
2021/05/24 09:43:29;;;;;;;1.27;1.23;;;17.70;93.50;;;;;;5052231;28;20481;-71
2021/05/24 09:46:07;;;;;;;1.20;1.00;;;17.50;93.40;;;;;;5050148;28;20453;-70
2021/05/24 09:48:33;;;;;;;1.20;1.00;;;17.60;92.30;;;;;;5051120;28;20453;-71
2021/05/24 09:51:04;;;;;;;1.20;1.00;;;17.70;91.60;;;;;;5049657;28;20528;-71
2021/05/24 09:53:30;;;;;;;1.20;1.10;;;17.70;91.20;;;;;;5052183;28;20981;-71
2021/05/24 09:56:04;;;;;;;1.20;1.10;;;17.60;91.50;;;;;;5048356;28;20492;-69
2021/05/24 09:58:30;;;;;;;1.30;1.20;;;17.60;91.60;;;;;;5050409;28;20472;-71
2021/05/24 10:01:03;;;;;;;1.20;1.00;;;17.60;91.10;;;;;;5049297;28;20446;-72
2021/05/24 10:03:33;;;;;;;1.30;1.20;;;17.60;90.40;;;;;;5051804;28;20454;-71
2021/05/24 10:05:59;;;;;;;1.67;1.20;;;17.70;90.70;;;;;;5048352;28;20458;-72
2021/05/24 10:08:28;;;;;;;1.20;1.00;;;17.80;90.90;;;;;;5050601;28;20509;-72
2021/05/24 10:10:54;;;;;;;1.20;1.07;;;17.90;93.70;;;;;;5049494;28;20458;-71
2021/05/24 10:13:28;;;;;;;1.30;1.20;;;18.10;92.60;;;;;;5051591;28;20449;-71
2021/05/24 10:15:59;;;;;;;1.20;1.10;;;18.40;92.10;;;;;;5048100;28;20796;-70
2021/05/24 10:18:26;;;;;;;1.50;1.40;;;18.50;89.50;;;;;;5051567;28;20464;-71
2021/05/24 10:20:53;;;;;;;1.20;1.00;;;18.60;89.50;;;;;;5049501;28;20519;-71
2021/05/24 10:23:21;;;;;;;1.20;1.00;;;18.70;89.40;;;;;;5051566;28;20503;-70
2021/05/24 10:25:50;;;;;;;1.20;1.00;;;18.80;88.80;;;;;;5049126;28;20480;-71
2021/05/24 10:28:20;;;;;;;1.60;1.20;;;18.70;88.30;;;;;;5051450;28;20875;-71
2021/05/24 10:30:47;;;;;;;1.20;1.00;;;18.50;88.60;;;;;;5047687;28;20481;-71
2021/05/24 10:33:13;;;;;;;1.67;1.30;;;18.50;89.00;;;;;;5051201;28;20548;-70
2021/05/24 10:35:41;;;;;;;1.20;1.03;;;18.60;90.00;;;;;;5048732;28;20468;-71
2021/05/24 10:38:29;;;;;;;1.30;1.20;;;18.70;89.70;;;;;;5050976;28;20446;-71
2021/05/24 10:41:08;;;;;;;1.20;1.10;;;18.80;89.60;;;;;;5048987;28;20457;-71
2021/05/24 10:43:45;;;;;;;1.20;1.07;;;19.00;90.20;;;;;;5051271;28;20454;-71
2021/05/24 10:46:35;;;;;;;1.40;1.23;;;19.00;86.50;;;;;;5048986;28;20827;-72
2021/05/24 10:49:14;;;;;;;1.30;1.10;;;18.90;87.40;;;;;;5048409;28;20502;-71
2021/05/24 10:52:03;;;;;;;1.40;1.20;;;18.80;88.50;;;;;;5051114;28;20473;-71
2021/05/24 10:54:36;;;;;;;1.20;1.10;;;18.70;90.90;;;;;;5048271;28;20549;-71
2021/05/24 10:57:15;;;;;;;1.20;1.00;;;18.80;91.70;;;;;;5050632;28;20446;-71
2021/05/24 11:00:02;;;;;;;1.20;1.10;;;18.90;88.60;;;;;;5048175;28;20832;-70
2021/05/24 11:02:34;;;;;;;1.20;1.00;;;19.00;88.70;;;;;;5051028;28;20964;-71
2021/05/24 11:05:22;;;;;;;1.30;1.10;;;19.10;88.00;;;;;;5048091;28;20457;-71
2021/05/24 11:07:50;;;;;;;1.20;1.00;;;18.90;87.90;;;;;;5050587;28;20466;-71
2021/05/24 11:10:22;;;;;;;1.30;1.10;;;18.90;88.20;;;;;;5048368;28;20539;-71
2021/05/24 11:12:50;;;;;;;1.20;1.20;;;18.70;87.90;;;;;;5050382;28;20493;-70
2021/05/24 11:15:19;;;;;;;1.20;1.00;;;18.70;89.00;;;;;;5048263;28;20453;-71
2021/05/24 11:18:13;;;;;;;1.20;1.10;;;18.60;88.20;;;;;;5050259;28;20539;-70
2021/05/24 11:20:46;;;;;;;1.47;1.23;;;18.60;89.70;;;;;;5048341;28;20845;-69
2021/05/24 11:23:23;;;;;;;1.80;1.23;;;18.60;90.60;;;;;;5050251;28;20462;-70
2021/05/24 11:25:55;;;;;;;1.20;1.10;;;18.40;90.10;;;;;;5047961;28;20453;-70
2021/05/24 11:28:33;;;;;;;1.20;1.00;;;18.60;92.70;;;;;;5050413;28;20462;-68
2021/05/24 11:31:09;;;;;;;1.20;1.10;;;18.90;90.10;;;;;;5048344;28;20457;-70
2021/05/24 11:33:47;;;;;;;1.50;1.27;;;19.30;90.60;;;;;;5050718;28;20943;-69
2021/05/24 11:36:14;;;;;;;1.30;1.20;;;19.70;83.90;;;;;;5048574;28;20450;-70
2021/05/24 11:39:00;;;;;;;1.20;1.10;;;20.00;82.40;;;;;;5050519;28;20991;-71
2021/05/24 11:41:30;;;;;;;1.20;1.10;;;20.10;80.50;;;;;;5050266;28;20476;-72
2021/05/24 11:44:01;;;;;;;1.20;1.10;;;20.10;81.90;;;;;;5048523;28;20758;-72
2021/05/24 11:46:41;;;;;;;1.27;1.20;;;20.00;79.60;;;;;;5050575;28;20454;-71
2021/05/24 11:49:07;;;;;;;1.90;1.10;;;19.80;80.60;;;;;;5048212;28;20493;-71
2021/05/24 11:51:36;;;;;;;1.20;1.10;;;19.80;79.40;;;;;;5050564;28;20454;-71
2021/05/24 11:54:05;;;;;;;1.20;1.00;;;19.80;79.90;;;;;;5048246;28;20463;-71
2021/05/24 11:56:42;;;;;;;1.20;1.03;;;19.90;81.10;;;;;;5050598;28;20462;-71
2021/05/24 11:59:11;;;;;;;1.20;1.10;;;19.90;80.40;;;;;;5048331;28;20835;-71
2021/05/24 12:01:40;;;;;;;1.20;1.10;;;19.90;80.30;;;;;;5050318;28;20458;-71
2021/05/24 12:04:09;;;;;;;1.30;1.10;;;19.90;78.10;;;;;;5048214;28;20472;-71
2021/05/24 12:06:50;;;;;;;1.20;1.10;;;19.80;79.60;;;;;;5050586;28;20465;-72
2021/05/24 12:09:37;;;;;;;1.20;1.00;;;19.80;79.60;;;;;;5048553;28;20864;-71
2021/05/24 12:12:10;;;;;;;1.20;1.10;;;19.90;79.70;;;;;;5050546;28;20493;-72
2021/05/24 12:14:39;;;;;;;1.20;1.00;;;20.00;79.30;;;;;;5048429;28;20458;-71
2021/05/24 12:17:08;;;;;;;1.20;1.10;;;20.00;78.80;;;;;;5050434;28;20488;-71
2021/05/24 12:19:35;;;;;;;1.40;1.00;;;20.20;81.40;;;;;;5080397;28;20515;-71
2021/05/24 12:22:05;;;;;;;1.30;1.10;;;20.20;79.80;;;;;;5050309;28;20469;-71
2021/05/24 12:24:34;;;;;;;1.27;1.17;;;20.10;79.60;;;;;;5048104;28;20454;-72
2021/05/24 12:27:01;;;;;;;1.20;1.13;;;20.00;79.10;;;;;;5050229;28;20936;-72
2021/05/24 12:29:29;;;;;;;1.20;1.10;;;19.80;80.60;;;;;;5049573;28;20485;-72
2021/05/24 12:31:58;;;;;;;1.20;1.10;;;19.70;80.10;;;;;;5054099;28;20489;-71
2021/05/24 12:34:30;;;;;;;1.37;1.20;;;19.50;81.40;;;;;;5051865;28;20531;-71
2021/05/24 12:39:45;;;;;;;1.20;1.10;;;19.40;83.00;;;;;;5051323;28;20461;-71
2021/05/24 12:42:13;;;;;;;1.37;1.17;;;19.50;81.90;;;;;;5053685;28;20975;-71
2021/05/24 12:44:40;;;;;;;1.20;1.10;;;19.50;80.70;;;;;;5051505;28;20889;-71
2021/05/24 12:47:15;;;;;;;1.23;1.17;;;19.50;82.10;;;;;;5053762;28;20461;-71
2021/05/24 12:49:42;;;;;;;1.67;1.20;;;19.60;80.10;;;;;;5051344;28;20492;-71
2021/05/24 12:52:10;;;;;;;1.30;1.00;;;19.50;82.70;;;;;;5053570;28;20454;-71
2021/05/24 12:54:45;;;;;;;1.20;1.10;;;19.40;83.30;;;;;;5051223;28;20485;-71
2021/05/24 12:57:12;;;;;;;1.20;1.10;;;19.40;81.10;;;;;;5053572;28;20491;-72
2021/05/24 12:59:48;;;;;;;1.50;1.17;;;19.30;81.60;;;;;;5051169;28;20486;-71
2021/05/24 13:02:23;;;;;;;1.30;1.10;;;19.40;83.10;;;;;;5053401;28;20737;-72